sensor_id;sensor_type;location;lat;lon;timestamp;pressure;altitude;pressure_sealevel;temperature;humidity
62592;BME280;48659;41.622;2.276;2023-03-14T00:00:09;99097.08;;;19.01;29.06
62592;BME280;48659;41.622;2.276;2023-03-14T00:02:36;99114.35;;;16.66;31.81
62592;BME280;48659;41.622;2.276;2023-03-14T00:05:05;99125.84;;;18.44;29.81
62592;BME280;48659;41.622;2.276;2023-03-14T00:07:34;99143.61;;;16.37;31.68
62592;BME280;48659;41.622;2.276;2023-03-14T00:10:03;99153.02;;;15.10;38.69
62592;BME280;48659;41.622;2.276;2023-03-14T00:12:31;99159.48;;;14.33;47.76
62592;BME280;48659;41.622;2.276;2023-03-14T00:14:58;99151.79;;;14.11;50.09
62592;BME280;48659;41.622;2.276;2023-03-14T00:17:26;99156.66;;;13.12;59.43
62592;BME280;48659;41.622;2.276;2023-03-14T00:19:54;99169.98;;;11.68;60.42
62592;BME280;48659;41.622;2.276;2023-03-14T00:22:22;99192.45;;;12.84;62.61
62592;BME280;48659;41.622;2.276;2023-03-14T00:24:50;99186.10;;;12.57;63.34
62592;BME280;48659;41.622;2.276;2023-03-14T00:27:18;99191.52;;;12.32;63.66
62592;BME280;48659;41.622;2.276;2023-03-14T00:29:47;99190.97;;;12.52;61.03
62592;BME280;48659;41.622;2.276;2023-03-14T00:32:14;99197.68;;;13.17;59.19
62592;BME280;48659;41.622;2.276;2023-03-14T00:34:43;99200.34;;;14.24;55.46
62592;BME280;48659;41.622;2.276;2023-03-14T00:37:10;99219.04;;;14.07;57.11
62592;BME280;48659;41.622;2.276;2023-03-14T00:39:37;99229.38;;;14.62;55.96
62592;BME280;48659;41.622;2.276;2023-03-14T00:42:05;99223.29;;;15.18;52.81
62592;BME280;48659;41.622;2.276;2023-03-14T00:44:32;99224.45;;;13.32;58.61
62592;BME280;48659;41.622;2.276;2023-03-14T00:47:00;99231.05;;;12.57;61.55
62592;BME280;48659;41.622;2.276;2023-03-14T00:49:27;99233.71;;;13.67;58.65
62592;BME280;48659;41.622;2.276;2023-03-14T00:51:55;99231.38;;;12.76;58.35
62592;BME280;48659;41.622;2.276;2023-03-14T00:54:23;99227.88;;;14.03;57.10
62592;BME280;48659;41.622;2.276;2023-03-14T00:56:50;99217.26;;;13.36;56.03
62592;BME280;48659;41.622;2.276;2023-03-14T00:59:18;99216.81;;;13.19;59.21
62592;BME280;48659;41.622;2.276;2023-03-14T01:01:45;99222.35;;;14.13;55.39
62592;BME280;48659;41.622;2.276;2023-03-14T01:04:13;99226.22;;;12.60;58.64
62592;BME280;48659;41.622;2.276;2023-03-14T01:06:40;99232.64;;;13.25;56.16
62592;BME280;48659;41.622;2.276;2023-03-14T01:09:08;99225.79;;;13.53;56.74
62592;BME280;48659;41.622;2.276;2023-03-14T01:11:36;99233.40;;;12.67;57.85
62592;BME280;48659;41.622;2.276;2023-03-14T01:14:04;99238.53;;;12.93;56.20
62592;BME280;48659;41.622;2.276;2023-03-14T01:16:33;99239.63;;;12.73;56.11
62592;BME280;48659;41.622;2.276;2023-03-14T01:19:00;99239.98;;;11.90;57.19
62592;BME280;48659;41.622;2.276;2023-03-14T01:21:30;99235.90;;;13.89;53.38
62592;BME280;48659;41.622;2.276;2023-03-14T01:24:05;99225.34;;;13.70;51.98
62592;BME280;48659;41.622;2.276;2023-03-14T01:26:34;99225.94;;;14.28;52.51
62592;BME280;48659;41.622;2.276;2023-03-14T01:29:02;99213.86;;;14.32;48.86
62592;BME280;48659;41.622;2.276;2023-03-14T01:31:30;99216.07;;;13.83;51.74
62592;BME280;48659;41.622;2.276;2023-03-14T01:33:58;99228.87;;;10.90;56.29
62592;BME280;48659;41.622;2.276;2023-03-14T01:36:26;99215.48;;;13.27;54.51
62592;BME280;48659;41.622;2.276;2023-03-14T01:38:54;99220.27;;;13.88;50.53
62592;BME280;48659;41.622;2.276;2023-03-14T01:41:23;99216.58;;;15.38;47.67
62592;BME280;48659;41.622;2.276;2023-03-14T01:43:51;99220.27;;;15.23;46.56
62592;BME280;48659;41.622;2.276;2023-03-14T01:46:28;99227.31;;;15.80;45.71
62592;BME280;48659;41.622;2.276;2023-03-14T01:49:02;99230.58;;;15.19;45.77
62592;BME280;48659;41.622;2.276;2023-03-14T01:51:36;99232.13;;;16.28;44.74
62592;BME280;48659;41.622;2.276;2023-03-14T01:54:17;99232.34;;;16.21;44.57
62592;BME280;48659;41.622;2.276;2023-03-14T01:56:51;99231.39;;;15.49;44.70
62592;BME280;48659;41.622;2.276;2023-03-14T01:59:21;99224.94;;;15.97;43.59
62592;BME280;48659;41.622;2.276;2023-03-14T02:01:50;99235.64;;;13.76;47.38
62592;BME280;48659;41.622;2.276;2023-03-14T02:04:19;99241.31;;;14.79;46.13
62592;BME280;48659;41.622;2.276;2023-03-14T02:06:52;99244.77;;;13.63;46.33
62592;BME280;48659;41.622;2.276;2023-03-14T02:09:22;99245.81;;;16.03;43.86
62592;BME280;48659;41.622;2.276;2023-03-14T02:11:50;99258.03;;;12.99;48.06
62592;BME280;48659;41.622;2.276;2023-03-14T02:14:27;99262.95;;;11.70;52.10
62592;BME280;48659;41.622;2.276;2023-03-14T02:16:55;99267.01;;;11.32;56.09
62592;BME280;48659;41.622;2.276;2023-03-14T02:19:31;99261.78;;;13.31;51.65
62592;BME280;48659;41.622;2.276;2023-03-14T02:22:05;99258.32;;;14.28;49.70
62592;BME280;48659;41.622;2.276;2023-03-14T02:24:40;99248.37;;;12.60;53.00
62592;BME280;48659;41.622;2.276;2023-03-14T02:27:11;99244.90;;;12.75;52.05
62592;BME280;48659;41.622;2.276;2023-03-14T02:29:45;99237.76;;;13.82;51.60
62592;BME280;48659;41.622;2.276;2023-03-14T02:32:14;99241.11;;;14.91;48.65
62592;BME280;48659;41.622;2.276;2023-03-14T02:34:46;99240.54;;;14.57;47.43
62592;BME280;48659;41.622;2.276;2023-03-14T02:37:16;99244.23;;;15.65;45.00
62592;BME280;48659;41.622;2.276;2023-03-14T02:39:45;99242.89;;;14.65;44.87
62592;BME280;48659;41.622;2.276;2023-03-14T02:42:14;99246.14;;;11.27;53.54
62592;BME280;48659;41.622;2.276;2023-03-14T02:45:33;99241.71;;;14.06;47.77
62592;BME280;48659;41.622;2.276;2023-03-14T02:48:04;99249.01;;;13.64;42.83
62592;BME280;48659;41.622;2.276;2023-03-14T02:50:34;99244.01;;;14.18;39.75
62592;BME280;48659;41.622;2.276;2023-03-14T02:53:01;99241.92;;;15.52;38.48
62592;BME280;48659;41.622;2.276;2023-03-14T02:55:29;99254.41;;;14.32;40.51
62592;BME280;48659;41.622;2.276;2023-03-14T02:57:56;99260.65;;;14.85;39.64
62592;BME280;48659;41.622;2.276;2023-03-14T03:00:25;99255.01;;;15.62;38.34
62592;BME280;48659;41.622;2.276;2023-03-14T03:02:52;99270.14;;;11.49;47.11
62592;BME280;48659;41.622;2.276;2023-03-14T03:05:20;99266.31;;;14.00;43.07
62592;BME280;48659;41.622;2.276;2023-03-14T03:07:48;99270.93;;;14.42;42.63
62592;BME280;48659;41.622;2.276;2023-03-14T03:10:15;99272.53;;;15.40;42.22
62592;BME280;48659;41.622;2.276;2023-03-14T03:12:43;99279.61;;;12.20;46.84
62592;BME280;48659;41.622;2.276;2023-03-14T03:15:10;99290.50;;;13.91;45.97
62592;BME280;48659;41.622;2.276;2023-03-14T03:20:47;99290.23;;;11.56;47.69
62592;BME280;48659;41.622;2.276;2023-03-14T03:23:16;99292.33;;;13.63;44.85
62592;BME280;48659;41.622;2.276;2023-03-14T03:25:48;99297.81;;;14.77;44.54
62592;BME280;48659;41.622;2.276;2023-03-14T03:28:16;99300.09;;;11.32;51.98
62592;BME280;48659;41.622;2.276;2023-03-14T03:30:44;99297.90;;;11.85;53.78
62592;BME280;48659;41.622;2.276;2023-03-14T03:33:12;99302.07;;;10.89;57.59
62592;BME280;48659;41.622;2.276;2023-03-14T03:35:45;99299.91;;;10.31;60.48
62592;BME280;48659;41.622;2.276;2023-03-14T03:38:14;99297.45;;;8.88;64.80
62592;BME280;48659;41.622;2.276;2023-03-14T03:40:41;99299.49;;;8.97;64.40
62592;BME280;48659;41.622;2.276;2023-03-14T03:43:10;99300.16;;;10.72;59.74
62592;BME280;48659;41.622;2.276;2023-03-14T03:45:37;99291.40;;;12.61;54.81
62592;BME280;48659;41.622;2.276;2023-03-14T03:48:05;99305.57;;;9.77;58.40
62592;BME280;48659;41.622;2.276;2023-03-14T03:50:33;99303.63;;;10.73;59.13
62592;BME280;48659;41.622;2.276;2023-03-14T03:53:00;99307.95;;;11.86;57.17
62592;BME280;48659;41.622;2.276;2023-03-14T03:55:28;99312.87;;;11.50;57.41
62592;BME280;48659;41.622;2.276;2023-03-14T03:57:56;99316.57;;;11.14;58.60
62592;BME280;48659;41.622;2.276;2023-03-14T04:00:28;99320.57;;;11.19;59.08
62592;BME280;48659;41.622;2.276;2023-03-14T04:02:56;99323.22;;;10.70;59.49
62592;BME280;48659;41.622;2.276;2023-03-14T04:05:24;99324.02;;;10.32;60.35
62592;BME280;48659;41.622;2.276;2023-03-14T04:07:52;99326.28;;;9.85;60.92
62592;BME280;48659;41.622;2.276;2023-03-14T04:10:20;99332.76;;;9.09;62.38
62592;BME280;48659;41.622;2.276;2023-03-14T04:12:47;99327.97;;;9.94;60.66
62592;BME280;48659;41.622;2.276;2023-03-14T04:15:15;99332.04;;;9.69;59.30
62592;BME280;48659;41.622;2.276;2023-03-14T04:17:47;99335.51;;;10.22;60.07
62592;BME280;48659;41.622;2.276;2023-03-14T04:20:15;99328.27;;;8.94;63.92
62592;BME280;48659;41.622;2.276;2023-03-14T04:22:43;99326.02;;;10.45;60.82
62592;BME280;48659;41.622;2.276;2023-03-14T04:25:18;99324.72;;;11.19;57.25
62592;BME280;48659;41.622;2.276;2023-03-14T04:27:46;99319.01;;;11.71;55.43
62592;BME280;48659;41.622;2.276;2023-03-14T04:30:16;99318.36;;;11.88;53.63
62592;BME280;48659;41.622;2.276;2023-03-14T04:32:44;99322.28;;;9.79;60.02
62592;BME280;48659;41.622;2.276;2023-03-14T04:35:16;99309.83;;;11.86;54.27
62592;BME280;48659;41.622;2.276;2023-03-14T04:37:44;99300.48;;;13.09;51.57
62592;BME280;48659;41.622;2.276;2023-03-14T04:40:18;99296.88;;;12.72;50.49
62592;BME280;48659;41.622;2.276;2023-03-14T04:42:46;99297.14;;;13.69;50.36
62592;BME280;48659;41.622;2.276;2023-03-14T04:45:16;99306.92;;;10.08;56.41
62592;BME280;48659;41.622;2.276;2023-03-14T04:47:44;99308.51;;;10.52;59.04
62592;BME280;48659;41.622;2.276;2023-03-14T04:50:12;99313.91;;;9.59;60.57
62592;BME280;48659;41.622;2.276;2023-03-14T04:52:39;99327.09;;;9.10;63.04
62592;BME280;48659;41.622;2.276;2023-03-14T04:55:06;99334.51;;;8.05;66.33
62592;BME280;48659;41.622;2.276;2023-03-14T04:57:33;99349.25;;;7.54;68.99
62592;BME280;48659;41.622;2.276;2023-03-14T05:00:01;99357.21;;;8.76;65.14
62592;BME280;48659;41.622;2.276;2023-03-14T05:02:28;99352.45;;;9.38;62.70
62592;BME280;48659;41.622;2.276;2023-03-14T05:05:00;99359.92;;;10.41;58.64
62592;BME280;48659;41.622;2.276;2023-03-14T05:07:28;99354.17;;;8.67;57.60
62592;BME280;48659;41.622;2.276;2023-03-14T05:09:55;99349.13;;;9.36;59.14
62592;BME280;48659;41.622;2.276;2023-03-14T05:12:23;99343.95;;;9.02;59.00
62592;BME280;48659;41.622;2.276;2023-03-14T05:14:51;99343.79;;;10.51;56.66
62592;BME280;48659;41.622;2.276;2023-03-14T05:17:18;99343.25;;;10.49;54.13
62592;BME280;48659;41.622;2.276;2023-03-14T05:19:46;99350.55;;;10.88;55.19
62592;BME280;48659;41.622;2.276;2023-03-14T05:22:14;99340.98;;;11.55;52.23
62592;BME280;48659;41.622;2.276;2023-03-14T05:24:42;99347.91;;;9.85;54.55
62592;BME280;48659;41.622;2.276;2023-03-14T05:27:17;99331.35;;;11.80;50.91
62592;BME280;48659;41.622;2.276;2023-03-14T05:29:44;99323.31;;;12.54;49.53
62592;BME280;48659;41.622;2.276;2023-03-14T05:32:11;99335.14;;;11.42;51.49
62592;BME280;48659;41.622;2.276;2023-03-14T05:34:39;99345.00;;;12.88;48.17
62592;BME280;48659;41.622;2.276;2023-03-14T05:37:06;99352.64;;;10.20;53.88
62592;BME280;48659;41.622;2.276;2023-03-14T05:39:34;99358.13;;;9.37;56.07
62592;BME280;48659;41.622;2.276;2023-03-14T05:42:01;99362.92;;;10.16;54.44
62592;BME280;48659;41.622;2.276;2023-03-14T05:44:29;99370.51;;;9.78;55.49
62592;BME280;48659;41.622;2.276;2023-03-14T05:46:56;99371.99;;;10.60;54.03
62592;BME280;48659;41.622;2.276;2023-03-14T05:49:23;99389.14;;;8.14;58.01
62592;BME280;48659;41.622;2.276;2023-03-14T05:51:52;99383.78;;;9.95;56.25
62592;BME280;48659;41.622;2.276;2023-03-14T05:54:20;99383.31;;;10.86;52.85
62592;BME280;48659;41.622;2.276;2023-03-14T05:56:47;99385.70;;;11.05;51.87
62592;BME280;48659;41.622;2.276;2023-03-14T05:59:14;99385.68;;;10.37;50.78
62592;BME280;48659;41.622;2.276;2023-03-14T06:01:41;99384.18;;;10.14;50.92
62592;BME280;48659;41.622;2.276;2023-03-14T06:04:17;99385.82;;;8.62;52.18
62592;BME280;48659;41.622;2.276;2023-03-14T06:06:44;99388.58;;;8.33;54.18
62592;BME280;48659;41.622;2.276;2023-03-14T06:09:17;99386.43;;;8.03;52.38
62592;BME280;48659;41.622;2.276;2023-03-14T06:11:44;99386.62;;;8.68;50.86
62592;BME280;48659;41.622;2.276;2023-03-14T06:14:18;99392.17;;;7.17;52.03
62592;BME280;48659;41.622;2.276;2023-03-14T06:16:46;99389.25;;;8.00;51.53
62592;BME280;48659;41.622;2.276;2023-03-14T06:19:17;99398.07;;;6.90;51.76
62592;BME280;48659;41.622;2.276;2023-03-14T06:21:46;99390.63;;;7.82;50.50
62592;BME280;48659;41.622;2.276;2023-03-14T06:24:16;99393.31;;;8.07;48.23
62592;BME280;48659;41.622;2.276;2023-03-14T06:26:44;99396.60;;;8.77;46.19
62592;BME280;48659;41.622;2.276;2023-03-14T06:29:17;99392.19;;;10.70;42.26
62592;BME280;48659;41.622;2.276;2023-03-14T06:31:44;99388.68;;;11.52;40.88
62592;BME280;48659;41.622;2.276;2023-03-14T06:34:16;99388.72;;;12.69;39.11
62592;BME280;48659;41.622;2.276;2023-03-14T06:36:43;99385.18;;;12.77;38.48
62592;BME280;48659;41.622;2.276;2023-03-14T06:39:15;99380.77;;;12.78;37.85
62592;BME280;48659;41.622;2.276;2023-03-14T06:41:43;99382.35;;;12.97;37.92
62592;BME280;48659;41.622;2.276;2023-03-14T06:44:17;99382.89;;;12.70;37.47
62592;BME280;48659;41.622;2.276;2023-03-14T06:46:44;99385.53;;;13.49;36.10
62592;BME280;48659;41.622;2.276;2023-03-14T06:49:12;99391.33;;;13.13;36.02
62592;BME280;48659;41.622;2.276;2023-03-14T06:51:40;99399.21;;;12.03;37.88
62592;BME280;48659;41.622;2.276;2023-03-14T06:54:16;99408.01;;;13.57;38.00
62592;BME280;48659;41.622;2.276;2023-03-14T06:56:44;99417.54;;;11.73;39.62
62592;BME280;48659;41.622;2.276;2023-03-14T06:59:17;99419.61;;;11.94;37.00
62592;BME280;48659;41.622;2.276;2023-03-14T07:01:44;99423.90;;;12.77;36.71
62592;BME280;48659;41.622;2.276;2023-03-14T07:04:17;99423.59;;;12.98;36.62
62592;BME280;48659;41.622;2.276;2023-03-14T07:06:44;99423.79;;;12.70;36.52
62592;BME280;48659;41.622;2.276;2023-03-14T07:09:17;99432.50;;;13.00;35.94
62592;BME280;48659;41.622;2.276;2023-03-14T07:11:44;99438.04;;;13.55;35.37
62592;BME280;48659;41.622;2.276;2023-03-14T07:14:16;99443.90;;;12.56;37.52
62592;BME280;48659;41.622;2.276;2023-03-14T07:16:43;99450.34;;;11.98;38.10
62592;BME280;48659;41.622;2.276;2023-03-14T07:19:11;99434.90;;;13.24;36.22
62592;BME280;48659;41.622;2.276;2023-03-14T07:21:39;99437.29;;;12.87;36.22
62592;BME280;48659;41.622;2.276;2023-03-14T07:24:07;99444.68;;;13.42;35.60
62592;BME280;48659;41.622;2.276;2023-03-14T07:26:35;99448.11;;;11.91;36.99
62592;BME280;48659;41.622;2.276;2023-03-14T07:29:02;99451.80;;;13.57;35.31
62592;BME280;48659;41.622;2.276;2023-03-14T07:31:29;99458.83;;;12.40;36.98
62592;BME280;48659;41.622;2.276;2023-03-14T07:33:57;99455.99;;;13.01;36.08
62592;BME280;48659;41.622;2.276;2023-03-14T07:36:26;99464.62;;;11.77;36.50
62592;BME280;48659;41.622;2.276;2023-03-14T07:38:52;99470.63;;;12.56;37.18
62592;BME280;48659;41.622;2.276;2023-03-14T07:41:20;99470.91;;;12.02;36.25
62592;BME280;48659;41.622;2.276;2023-03-14T07:43:47;99468.53;;;13.89;34.79
62592;BME280;48659;41.622;2.276;2023-03-14T07:46:16;99473.81;;;10.90;40.05
62592;BME280;48659;41.622;2.276;2023-03-14T07:48:44;99471.50;;;11.59;39.57
62592;BME280;48659;41.622;2.276;2023-03-14T07:51:17;99472.41;;;10.92;40.32
62592;BME280;48659;41.622;2.276;2023-03-14T07:53:46;99478.91;;;11.32;39.28
62592;BME280;48659;41.622;2.276;2023-03-14T07:56:17;99467.69;;;11.88;38.69
62592;BME280;48659;41.622;2.276;2023-03-14T07:58:44;99474.62;;;10.45;40.24
62592;BME280;48659;41.622;2.276;2023-03-14T08:01:15;99478.85;;;10.42;42.06
62592;BME280;48659;41.622;2.276;2023-03-14T08:03:44;99495.50;;;10.48;41.92
62592;BME280;48659;41.622;2.276;2023-03-14T08:06:17;99489.91;;;10.58;40.98
62592;BME280;48659;41.622;2.276;2023-03-14T08:08:44;99496.10;;;10.70;41.71
62592;BME280;48659;41.622;2.276;2023-03-14T08:11:17;99501.35;;;10.13;41.69
62592;BME280;48659;41.622;2.276;2023-03-14T08:13:45;99497.39;;;11.43;38.93
62592;BME280;48659;41.622;2.276;2023-03-14T08:16:18;99502.20;;;11.50;37.36
62592;BME280;48659;41.622;2.276;2023-03-14T08:18:46;99512.71;;;12.38;37.66
62592;BME280;48659;41.622;2.276;2023-03-14T08:21:17;99521.72;;;11.12;38.91
62592;BME280;48659;41.622;2.276;2023-03-14T08:23:44;99522.76;;;11.55;39.04
62592;BME280;48659;41.622;2.276;2023-03-14T08:26:17;99521.23;;;11.58;37.50
62592;BME280;48659;41.622;2.276;2023-03-14T08:28:45;99519.68;;;11.81;37.55
62592;BME280;48659;41.622;2.276;2023-03-14T08:31:17;99527.64;;;11.54;37.17
62592;BME280;48659;41.622;2.276;2023-03-14T08:33:44;99521.66;;;11.81;37.95
62592;BME280;48659;41.622;2.276;2023-03-14T08:36:12;99523.78;;;12.25;36.95
62592;BME280;48659;41.622;2.276;2023-03-14T08:38:39;99526.58;;;11.98;37.67
62592;BME280;48659;41.622;2.276;2023-03-14T08:41:07;99523.79;;;12.94;35.85
62592;BME280;48659;41.622;2.276;2023-03-14T08:43:45;99524.57;;;12.47;36.89
62592;BME280;48659;41.622;2.276;2023-03-14T08:46:17;99531.57;;;12.23;36.93
62592;BME280;48659;41.622;2.276;2023-03-14T08:48:43;99519.92;;;12.33;36.59
62592;BME280;48659;41.622;2.276;2023-03-14T08:51:17;99521.24;;;12.66;34.72
62592;BME280;48659;41.622;2.276;2023-03-14T08:53:44;99535.84;;;12.59;36.18
62592;BME280;48659;41.622;2.276;2023-03-14T08:56:17;99527.64;;;11.52;37.23
62592;BME280;48659;41.622;2.276;2023-03-14T08:58:45;99534.76;;;12.12;37.00
62592;BME280;48659;41.622;2.276;2023-03-14T09:01:17;99537.91;;;11.52;37.85
62592;BME280;48659;41.622;2.276;2023-03-14T09:03:45;99535.75;;;12.04;36.83
62592;BME280;48659;41.622;2.276;2023-03-14T09:06:17;99537.76;;;11.83;36.64
62592;BME280;48659;41.622;2.276;2023-03-14T09:08:45;99540.34;;;12.08;36.58
62592;BME280;48659;41.622;2.276;2023-03-14T09:11:17;99551.55;;;12.13;35.93
62592;BME280;48659;41.622;2.276;2023-03-14T09:13:44;99553.48;;;12.21;36.34
62592;BME280;48659;41.622;2.276;2023-03-14T09:16:17;99563.01;;;12.06;35.97
62592;BME280;48659;41.622;2.276;2023-03-14T09:18:45;99566.59;;;12.38;35.91
62592;BME280;48659;41.622;2.276;2023-03-14T09:21:19;99561.93;;;12.34;35.96
62592;BME280;48659;41.622;2.276;2023-03-14T09:23:46;99570.30;;;13.39;35.07
62592;BME280;48659;41.622;2.276;2023-03-14T09:26:18;99561.33;;;12.57;34.64
62592;BME280;48659;41.622;2.276;2023-03-14T09:28:45;99556.64;;;13.93;32.97
62592;BME280;48659;41.622;2.276;2023-03-14T09:31:13;99567.28;;;14.12;32.43
62592;BME280;48659;41.622;2.276;2023-03-14T09:33:41;99565.84;;;13.90;33.47
62592;BME280;48659;41.622;2.276;2023-03-14T09:36:16;99578.73;;;13.60;33.61
62592;BME280;48659;41.622;2.276;2023-03-14T09:38:44;99585.82;;;13.18;33.60
62592;BME280;48659;41.622;2.276;2023-03-14T09:41:23;99565.39;;;12.89;33.61
62592;BME280;48659;41.622;2.276;2023-03-14T09:44:00;99576.22;;;13.03;34.56
62592;BME280;48659;41.622;2.276;2023-03-14T09:46:29;99580.61;;;13.17;35.16
62592;BME280;48659;41.622;2.276;2023-03-14T09:48:58;99565.35;;;13.83;33.61
62592;BME280;48659;41.622;2.276;2023-03-14T09:51:26;99569.79;;;12.87;34.10
62592;BME280;48659;41.622;2.276;2023-03-14T09:53:54;99581.68;;;13.10;34.51
62592;BME280;48659;41.622;2.276;2023-03-14T09:56:26;99572.86;;;13.12;33.85
62592;BME280;48659;41.622;2.276;2023-03-14T09:58:57;99570.90;;;13.80;33.39
62592;BME280;48659;41.622;2.276;2023-03-14T10:01:27;99576.50;;;13.71;33.00
62592;BME280;48659;41.622;2.276;2023-03-14T10:03:57;99590.50;;;13.54;33.52
62592;BME280;48659;41.622;2.276;2023-03-14T10:06:27;99594.00;;;12.54;33.95
62592;BME280;48659;41.622;2.276;2023-03-14T10:08:56;99589.13;;;13.77;33.11
62592;BME280;48659;41.622;2.276;2023-03-14T10:11:24;99579.51;;;14.25;31.29
62592;BME280;48659;41.622;2.276;2023-03-14T10:14:29;99586.68;;;14.29;31.93
62592;BME280;48659;41.622;2.276;2023-03-14T10:17:06;99582.18;;;15.22;29.69
62592;BME280;48659;41.622;2.276;2023-03-14T10:19:34;99588.31;;;13.90;32.24
62592;BME280;48659;41.622;2.276;2023-03-14T10:22:03;99582.35;;;14.76;31.09
62592;BME280;48659;41.622;2.276;2023-03-14T10:24:33;99589.65;;;14.64;31.02
62592;BME280;48659;41.622;2.276;2023-03-14T10:27:02;99593.78;;;14.22;32.00
62592;BME280;48659;41.622;2.276;2023-03-14T10:29:31;99589.18;;;13.59;31.16
62592;BME280;48659;41.622;2.276;2023-03-14T10:32:01;99584.81;;;13.98;31.70
62592;BME280;48659;41.622;2.276;2023-03-14T10:34:31;99582.58;;;14.51;31.34
62592;BME280;48659;41.622;2.276;2023-03-14T10:37:03;99581.10;;;14.43;31.40
62592;BME280;48659;41.622;2.276;2023-03-14T10:39:39;99583.39;;;14.01;31.11
62592;BME280;48659;41.622;2.276;2023-03-14T10:42:20;99576.96;;;15.72;30.29
62592;BME280;48659;41.622;2.276;2023-03-14T10:44:58;99583.09;;;15.00;30.93
62592;BME280;48659;41.622;2.276;2023-03-14T10:47:28;99585.11;;;14.42;30.92
62592;BME280;48659;41.622;2.276;2023-03-14T10:49:56;99571.48;;;15.07;30.48
62592;BME280;48659;41.622;2.276;2023-03-14T10:52:26;99579.98;;;15.03;30.73
62592;BME280;48659;41.622;2.276;2023-03-14T10:54:56;99567.11;;;16.03;29.14
62592;BME280;48659;41.622;2.276;2023-03-14T10:57:25;99570.85;;;16.04;28.25
62592;BME280;48659;41.622;2.276;2023-03-14T10:59:53;99571.39;;;14.75;31.03
62592;BME280;48659;41.622;2.276;2023-03-14T11:02:34;99562.04;;;15.12;29.02
62592;BME280;48659;41.622;2.276;2023-03-14T11:05:12;99558.36;;;17.40;27.21
62592;BME280;48659;41.622;2.276;2023-03-14T11:07:43;99560.58;;;17.25;27.57
62592;BME280;48659;41.622;2.276;2023-03-14T11:10:24;99570.79;;;15.90;27.63
62592;BME280;48659;41.622;2.276;2023-03-14T11:13:04;99558.93;;;17.76;26.22
62592;BME280;48659;41.622;2.276;2023-03-14T11:15:54;99563.55;;;17.37;26.53
62592;BME280;48659;41.622;2.276;2023-03-14T11:18:53;99562.41;;;16.65;26.44
62592;BME280;48659;41.622;2.276;2023-03-14T11:21:31;99563.01;;;17.11;26.02
62592;BME280;48659;41.622;2.276;2023-03-14T11:24:21;99556.83;;;18.31;25.63
62592;BME280;48659;41.622;2.276;2023-03-14T11:26:57;99551.63;;;18.65;24.56
62592;BME280;48659;41.622;2.276;2023-03-14T11:29:30;99550.95;;;17.48;25.41
62592;BME280;48659;41.622;2.276;2023-03-14T11:32:02;99559.43;;;17.07;26.31
62592;BME280;48659;41.622;2.276;2023-03-14T11:34:39;99553.18;;;17.38;25.84
62592;BME280;48659;41.622;2.276;2023-03-14T11:37:15;99559.35;;;17.13;26.93
62592;BME280;48659;41.622;2.276;2023-03-14T11:39:52;99561.21;;;16.72;26.85
62592;BME280;48659;41.622;2.276;2023-03-14T11:42:22;99553.22;;;17.76;25.68
62592;BME280;48659;41.622;2.276;2023-03-14T11:44:51;99545.02;;;18.57;24.82
62592;BME280;48659;41.622;2.276;2023-03-14T11:47:24;99547.41;;;16.59;26.03
62592;BME280;48659;41.622;2.276;2023-03-14T11:49:56;99554.17;;;17.00;25.91
62592;BME280;48659;41.622;2.276;2023-03-14T11:52:29;99544.75;;;16.80;25.80
62592;BME280;48659;41.622;2.276;2023-03-14T11:55:01;99543.31;;;17.06;26.47
62592;BME280;48659;41.622;2.276;2023-03-14T11:57:29;99541.86;;;16.59;26.30
62592;BME280;48659;41.622;2.276;2023-03-14T11:59:59;99536.03;;;17.45;25.87
62592;BME280;48659;41.622;2.276;2023-03-14T12:02:35;99523.58;;;17.52;24.89
62592;BME280;48659;41.622;2.276;2023-03-14T12:05:44;99518.32;;;19.19;23.55
62592;BME280;48659;41.622;2.276;2023-03-14T12:08:49;99513.42;;;17.25;24.52
62592;BME280;48659;41.622;2.276;2023-03-14T12:11:21;99512.72;;;16.55;25.22
62592;BME280;48659;41.622;2.276;2023-03-14T12:13:53;99509.28;;;16.74;25.51
62592;BME280;48659;41.622;2.276;2023-03-14T12:16:32;99510.91;;;16.66;26.09
62592;BME280;48659;41.622;2.276;2023-03-14T12:19:26;99499.48;;;18.51;24.79
62592;BME280;48659;41.622;2.276;2023-03-14T12:21:58;99499.72;;;18.45;24.03
62592;BME280;48659;41.622;2.276;2023-03-14T12:24:30;99492.19;;;18.41;22.92
62592;BME280;48659;41.622;2.276;2023-03-14T12:27:00;99491.28;;;18.11;22.86
62592;BME280;48659;41.622;2.276;2023-03-14T12:29:29;99496.54;;;17.75;23.06
62592;BME280;48659;41.622;2.276;2023-03-14T12:32:29;99489.30;;;17.76;23.61
62592;BME280;48659;41.622;2.276;2023-03-14T12:35:23;99489.55;;;17.20;23.81
62592;BME280;48659;41.622;2.276;2023-03-14T12:38:01;99476.22;;;17.54;23.26
62592;BME280;48659;41.622;2.276;2023-03-14T12:40:32;99481.00;;;16.52;23.84
62592;BME280;48659;41.622;2.276;2023-03-14T12:43:01;99478.30;;;17.81;23.72
62592;BME280;48659;41.622;2.276;2023-03-14T12:45:30;99477.57;;;17.35;23.72
62592;BME280;48659;41.622;2.276;2023-03-14T12:48:09;99492.21;;;16.94;23.08
62592;BME280;48659;41.622;2.276;2023-03-14T12:50:43;99481.56;;;16.03;24.64
62592;BME280;48659;41.622;2.276;2023-03-14T12:53:55;99475.41;;;17.41;23.76
62592;BME280;48659;41.622;2.276;2023-03-14T12:56:39;99458.89;;;18.05;22.36
62592;BME280;48659;41.622;2.276;2023-03-14T12:59:34;99457.05;;;18.35;21.05
62592;BME280;48659;41.622;2.276;2023-03-14T13:02:19;99460.36;;;17.73;22.49
62592;BME280;48659;41.622;2.276;2023-03-14T13:04:50;99457.82;;;16.86;23.00
62592;BME280;48659;41.622;2.276;2023-03-14T13:07:32;99451.27;;;17.00;22.05
62592;BME280;48659;41.622;2.276;2023-03-14T13:10:03;99452.74;;;17.51;21.51
62592;BME280;48659;41.622;2.276;2023-03-14T13:12:47;99453.59;;;17.94;21.93
62592;BME280;48659;41.622;2.276;2023-03-14T13:15:19;99449.62;;;17.19;22.10
62592;BME280;48659;41.622;2.276;2023-03-14T13:17:49;99440.34;;;18.53;21.85
62592;BME280;48659;41.622;2.276;2023-03-14T13:20:24;99430.01;;;17.82;21.59
62592;BME280;48659;41.622;2.276;2023-03-14T13:22:54;99425.75;;;18.27;22.17
62592;BME280;48659;41.622;2.276;2023-03-14T13:25:21;99430.76;;;17.76;22.27